Latest Weather Observations for Gabo Island

IDV60801

Issued at 1:42 pm EDT Saturday 23 March 2019 (issued every 10 minutes, with the page automatically refreshed every 10 minutes)

About weather observations | Map of weather stations | Latest weather observations for VIC | Other Formats
Station Details ID: 084016 Name: GABO ISLAND LIGHTHOUSE Lat: -37.57 Lon: 149.92 Height: 15.2 m
Data from the previous 72 hours. | See also: Recent months at Gabo Island
Date/Time
EDT
Temp
°C
App
Temp
°C
Dew
Point
°C
Rel
Hum
%
Delta-T
°C
Wind Press
QNH
hPa
Press
MSL
hPa
Rain since
9am
mm
Dir  Spd
km/h
Gust
km/h
Spd
kts
Gust
kts
23/01:30pm 24.2 20.8 18.9 72 3.4 NNE 35 44 19 24 1010.1 - 0.0
23/01:00pm 24.2 20.8 18.9 72 3.4 NNE 35 41 19 22 1009.7 - 0.0
23/12:30pm 23.3 19.3 18.5 74 3.0 NNE 37 44 20 24 1010.1 - 0.0
23/12:00pm 23.2 19.2 18.6 75 2.9 NE 37 46 20 25 1010.1 1010.1 0.0
23/11:30am 23.0 19.2 18.9 78 2.6 NE 37 43 20 23 1010.7 - 0.0
23/11:00am 23.0 19.6 18.9 78 2.6 NE 35 43 19 23 1011.0 - 0.0
23/10:30am 22.0 18.8 18.7 81 2.1 NNE 33 41 18 22 1011.5 - 0.0
23/10:00am 22.3 20.1 18.6 79 2.3 NNE 28 35 15 19 1011.7 - 0.0
23/09:30am 22.4 21.4 18.8 80 2.3 NNE 22 28 12 15 1012.1 - 0.0
23/09:00am 21.7 20.1 19.2 86 1.6 NNE 26 30 14 16 1012.0 1012.0 0.2
23/08:30am 21.5 21.2 19.5 88 1.3 NE 20 24 11 13 1012.3 - 0.2
23/08:00am 20.9 21.7 19.8 93 0.7 N 15 20 8 11 1012.6 - 0.2
23/07:30am 20.9 18.3 19.6 92 0.8 NE 32 35 17 19 1012.4 - 0.2
23/07:00am 20.9 19.3 19.3 90 1.0 NE 26 32 14 17 1012.4 - 0.2
23/06:30am 20.7 18.8 19.3 92 0.9 NE 28 32 15 17 1012.5 - 0.2
23/06:00am 19.9 20.8 19.3 96 0.4 NNE 13 17 7 9 1013.1 1013.2 0.2
23/05:30am 19.7 20.8 18.9 95 0.5 NNW 11 20 6 11 1013.5 - 0.2
23/05:00am 20.1 21.3 19.0 93 0.7 NNE 11 13 6 7 1013.4 - 0.0
23/04:30am 20.3 21.1 19.0 92 0.8 NNE 13 15 7 8 1013.5 - 0.0
23/04:00am 20.2 20.5 18.8 92 0.9 NNE 15 19 8 10 1014.0 - 0.0
23/03:30am 20.4 19.8 18.8 90 1.0 ENE 20 22 11 12 1014.0 - 0.0
23/03:00am 20.6 18.6 18.2 86 1.5 NE 26 30 14 16 1014.4 1014.4 0.0
23/02:30am 21.0 19.5 17.6 81 2.1 E 22 28 12 15 1014.7 - 0.0
23/02:00am 20.9 19.6 17.3 80 2.2 E 20 26 11 14 1015.0 - 0.0
23/01:30am 20.8 19.6 17.4 81 2.1 E 20 26 11 14 1015.2 - 0.0
23/01:00am 20.8 19.7 17.4 81 2.1 E 19 22 10 12 1015.5 - 0.0
23/12:30am 20.9 19.2 17.3 80 2.2 E 22 28 12 15 1015.7 - 0.0
23/12:00am 20.9 18.9 17.3 80 2.2 E 24 28 13 15 1016.0 1015.9 0.0
 
Date/Time
EDT
Temp
°C
App
Temp
°C
Dew
Point
°C
Rel
Hum
%
Delta-T
°C
Wind Press
QNH
hPa
Press
MSL
hPa
Rain since
9am
mm
Dir  Spd
km/h
Gust
km/h
Spd
kts
Gust
kts
22/11:30pm 20.9 18.8 17.1 79 2.3 E 24 30 13 16 1016.3 - 0.0
22/11:00pm 20.9 19.2 17.1 79 2.3 E 22 28 12 15 1016.5 - 0.0
22/10:30pm 20.8 19.1 17.2 80 2.2 E 22 28 12 15 1016.5 - 0.0
22/10:00pm 20.8 19.2 17.5 81 2.0 E 22 28 12 15 1016.4 - 0.0
22/09:30pm 20.9 18.9 17.5 81 2.1 E 24 30 13 16 1016.6 - 0.0
22/09:00pm 20.9 18.9 17.3 80 2.2 E 24 30 13 16 1016.4 1016.4 0.0
22/08:30pm 20.9 19.1 17.8 82 1.9 E 24 30 13 16 1016.5 - 0.0
22/08:00pm 20.9 18.5 17.3 80 2.2 E 26 33 14 18 1016.0 - 0.0
22/07:30pm 21.0 18.8 17.9 82 1.9 E 26 32 14 17 1015.7 - 0.0
22/07:00pm 21.1 18.8 17.7 81 2.1 E 26 32 14 17 1015.9 - 0.0
22/06:30pm 21.3 20.2 17.7 80 2.2 ESE 20 24 11 13 1016.0 - 0.0
22/06:00pm 21.4 20.5 17.8 80 2.2 E 19 24 10 13 1016.0 1015.9 0.0
22/05:30pm 21.5 20.7 18.0 80 2.2 ESE 19 24 10 13 1015.8 - 0.0
22/05:00pm 21.3 19.8 17.7 80 2.2 E 22 28 12 15 1015.6 - 0.0
22/04:30pm 21.3 19.6 18.1 82 2.0 E 24 28 13 15 1015.9 - 0.0
22/04:00pm 21.4 20.0 18.0 81 2.1 E 22 28 12 15 1016.4 - 0.0
22/03:30pm 21.4 19.8 18.4 83 1.9 E 24 30 13 16 1016.6 - 0.0
22/03:00pm 21.7 20.4 18.2 80 2.2 E 22 30 12 16 1016.7 1016.6 0.0
22/02:30pm 21.4 19.7 18.0 81 2.1 E 24 28 13 15 1016.9 - 0.0
22/02:00pm 21.2 20.3 18.1 82 1.9 E 20 26 11 14 1017.4 - 0.0
22/01:30pm 21.4 19.7 18.2 82 2.0 E 24 32 13 17 1017.4 - 0.0
22/01:00pm 21.8 19.6 17.9 78 2.4 E 26 32 14 17 1017.6 - 0.0
22/12:30pm 21.5 19.2 17.6 78 2.4 E 26 30 14 16 1017.8 - 0.0
22/12:00pm 21.5 19.2 17.6 78 2.4 E 26 32 14 17 1017.9 1017.9 0.0
22/11:30am 21.6 19.5 18.1 80 2.2 E 26 32 14 17 1018.1 - 0.0
22/11:00am 22.0 20.3 18.0 78 2.5 E 24 30 13 16 1018.0 - 0.0
22/10:30am 21.9 19.9 18.2 79 2.3 E 26 30 14 16 1018.1 - 0.0
22/10:00am 22.0 19.9 18.1 78 2.4 E 26 33 14 18 1018.0 - 0.0
22/09:30am 21.6 19.9 18.1 80 2.2 E 24 30 13 16 1017.9 - 0.0
22/09:00am 21.7 20.1 18.3 81 2.1 E 24 30 13 16 1017.7 1017.5 5.6
22/08:30am 21.6 19.9 18.2 81 2.1 E 24 32 13 17 1017.6 - 5.6
22/08:00am 21.1 19.2 18.5 85 1.6 E 26 33 14 18 1017.6 - 5.6
22/07:30am 20.4 18.8 19.1 92 0.8 ENE 26 32 14 17 1017.6 - 5.6
22/07:00am 20.5 20.8 19.6 95 0.6 ENE 17 24 9 13 1017.4 - 5.0
22/06:30am 19.5 21.0 18.9 96 0.4 NW 9 20 5 11 1017.4 - 5.0
22/06:00am 19.4 21.3 18.9 97 0.3 WNW 7 11 4 6 1017.2 1017.1 1.4
22/05:30am 19.5 20.5 18.7 95 0.5 W 11 15 6 8 1017.3 - 0.2
22/05:00am 19.2 20.2 18.7 97 0.3 WNW 11 13 6 7 1017.1 - 0.2
22/04:30am 19.2 20.2 18.7 97 0.3 WNW 11 15 6 8 1017.2 - 0.2
22/04:00am 19.1 19.7 18.6 97 0.3 WNW 13 15 7 8 1017.1 - 0.2
22/03:30am 18.8 19.2 18.2 96 0.4 WNW 13 15 7 8 1017.1 - 0.0
22/03:00am 19.1 19.7 18.6 97 0.3 WNW 13 13 7 7 1017.3 1017.3 0.0
22/02:30am 19.3 20.3 18.7 96 0.4 WNW 11 15 6 8 1017.6 - 0.0
22/02:00am 19.2 20.2 18.6 96 0.4 NW 11 15 6 8 1017.6 - 0.0
22/01:30am 19.4 19.7 18.8 96 0.4 WNW 15 17 8 9 1017.8 - 0.0
22/01:00am 19.4 20.3 18.4 94 0.6 WNW 11 17 6 9 1017.9 - 0.0
22/12:30am 19.5 20.8 18.5 94 0.6 WNW 9 11 5 6 1018.0 - 0.0
22/12:00am 19.6 20.6 18.6 94 0.6 W 11 15 6 8 1018.2 1018.1 0.0
 
Date/Time
EDT
Temp
°C
App
Temp
°C
Dew
Point
°C
Rel
Hum
%
Delta-T
°C
Wind Press
QNH
hPa
Press
MSL
hPa
Rain since
9am
mm
Dir  Spd
km/h
Gust
km/h
Spd
kts
Gust
kts
21/11:30pm 19.9 21.3 18.6 92 0.8 W 9 11 5 6 1018.3 - 0.0
21/11:00pm 20.1 22.5 18.7 92 0.9 WNW 4 13 2 7 1018.4 - 0.0
21/10:30pm 21.0 22.0 18.6 86 1.5 SSE 11 13 6 7 1018.5 - 0.0
21/10:00pm 20.7 22.0 18.5 87 1.4 SE 9 11 5 6 1018.4 - 0.0
21/09:30pm 20.6 21.9 18.5 88 1.3 SE 9 13 5 7 1018.2 - 0.0
21/09:00pm 20.4 22.1 18.6 89 1.1 SE 7 11 4 6 1018.2 1018.0 0.0
21/08:30pm 20.3 22.2 18.9 92 0.9 ESE 7 11 4 6 1018.1 - 0.0
21/08:00pm 20.1 21.6 19.0 93 0.7 E 9 11 5 6 1017.9 - 0.0
21/07:30pm 20.0 21.2 19.0 94 0.6 E 11 17 6 9 1017.5 - 0.0
21/07:00pm 20.2 20.5 18.8 92 0.9 E 15 19 8 10 1017.3 - 0.0
21/06:30pm 20.4 21.0 18.5 89 1.2 ESE 13 20 7 11 1017.0 - 0.0
21/06:00pm 20.6 21.0 18.2 86 1.5 ESE 13 17 7 9 1016.7 1016.7 0.0
21/05:30pm 20.8 21.0 18.6 87 1.4 ESE 15 20 8 11 1016.6 - 0.0
21/05:00pm 21.0 21.1 18.4 85 1.6 SE 15 20 8 11 1016.6 - 0.0
21/04:30pm 21.4 21.3 18.7 84 1.7 SSE 17 22 9 12 1016.7 - 0.0
21/04:00pm 21.7 21.4 18.2 80 2.2 SSE 17 20 9 11 1016.8 - 0.0
21/03:30pm 22.2 22.0 18.5 79 2.3 SSE 17 20 9 11 1016.8 - 0.0
21/03:00pm 22.3 22.2 18.8 80 2.2 SSE 17 20 9 11 1016.8 1016.7 0.0
21/02:30pm 22.5 22.7 18.5 78 2.5 SSE 15 20 8 11 1017.1 - 0.0
21/02:00pm 22.0 22.3 18.8 82 2.0 SSE 15 20 8 11 1017.4 - 0.0
21/01:30pm 22.1 22.6 18.4 79 2.3 SSE 13 17 7 9 1017.6 - 0.0
21/01:00pm 22.0 22.6 18.7 81 2.1 SSE 13 17 7 9 1017.8 - 0.0
21/12:30pm 21.8 22.1 18.8 83 1.9 SSE 15 19 8 10 1017.9 - 0.0
21/12:00pm 21.8 23.1 19.3 86 1.6 SSE 11 15 6 8 1018.1 1018.0 0.0
21/11:30am 21.4 22.6 19.0 86 1.5 SSE 11 15 6 8 1018.2 - 0.0
21/11:00am 21.5 23.0 19.0 86 1.6 SSE 9 13 5 7 1018.2 - 0.0
21/10:30am 21.4 22.7 19.3 88 1.3 SSE 11 17 6 9 1018.2 - 0.0
21/10:00am 20.8 22.3 18.9 89 1.2 SE 9 13 5 7 1018.1 - 0.0
21/09:30am 20.4 21.6 19.0 92 0.9 SE 11 13 6 7 1017.8 - 0.0
21/09:00am 20.0 21.8 18.7 92 0.8 SE 7 11 4 6 1017.8 1017.6 0.2
21/08:30am 19.7 20.7 18.6 93 0.7 SE 11 15 6 8 1017.6 - 0.2
21/08:00am 19.5 20.6 18.9 96 0.4 SSE 11 13 6 7 1017.5 - 0.2
21/07:30am 19.5 20.1 18.7 95 0.5 SSE 13 17 7 9 1017.3 - 0.2
21/07:00am 19.6 21.1 19.0 96 0.4 SSE 9 15 5 8 1016.8 - 0.2
21/06:30am 19.8 20.6 19.0 95 0.5 S 13 15 7 8 1016.4 - 0.2
21/06:00am 20.1 21.9 18.7 92 0.9 S 7 13 4 7 1016.0 1015.9 0.2
21/05:30am 20.0 21.7 18.6 92 0.9 S 7 9 4 5 1015.8 - 0.2
21/05:00am 20.0 21.3 18.4 90 1.0 SSE 9 11 5 6 1015.6 - 0.2
21/04:30am 20.0 20.6 18.6 92 0.9 SSE 13 17 7 9 1015.5 - 0.2
21/04:00am 20.2 20.9 18.8 92 0.9 SSE 13 17 7 9 1015.4 - 0.2
21/03:30am 20.2 20.9 18.8 92 0.9 SSE 13 17 7 9 1015.5 - 0.2
21/03:00am 20.1 21.2 18.8 92 0.8 SSE 11 17 6 9 1015.7 1015.6 0.2
21/02:30am 19.9 22.8 19.1 95 0.5 SSW 2 6 1 3 1015.9 - 0.2
21/02:00am 19.8 21.4 19.2 96 0.4 WNW 9 11 5 6 1016.2 - 0.2
21/01:30am 19.7 20.9 19.1 96 0.4 WNW 11 13 6 7 1016.2 - 0.2
21/01:00am 19.7 21.0 19.2 97 0.3 WNW 11 13 6 7 1016.3 - 0.2
21/12:30am 19.8 21.1 19.3 97 0.3 WNW 11 13 6 7 1016.3 - 0.2
21/12:00am 20.1 21.9 19.5 96 0.4 W 9 13 5 7 1016.4 1016.2 0.2
 
Date/Time
EDT
Temp
°C
App
Temp
°C
Dew
Point
°C
Rel
Hum
%
Delta-T
°C
Wind Press
QNH
hPa
Press
MSL
hPa
Rain since
9am
mm
Dir  Spd
km/h
Gust
km/h
Spd
kts
Gust
kts
20/11:30pm 20.1 21.9 19.5 96 0.4 W 9 11 5 6 1016.3 - 0.0
20/11:00pm 19.9 22.0 19.4 97 0.3 W 7 9 4 5 1016.3 - 0.0
20/10:30pm 19.5 21.4 19.0 97 0.3 WSW 7 9 4 5 1016.2 - 0.0
20/10:00pm 19.7 21.0 19.2 97 0.3 WNW 11 11 6 6 1016.3 - 0.0
20/09:30pm 19.8 21.5 19.3 97 0.3 WNW 9 9 5 5 1016.4 - 0.0
20/09:00pm 19.7 21.3 19.2 97 0.3 W 9 9 5 5 1016.2 1016.1 0.0
20/08:30pm 19.8 21.8 19.2 96 0.4 W 7 9 4 5 1016.0 - 0.0
20/08:00pm 19.8 21.3 19.0 95 0.5 W 9 9 5 5 1015.7 - 0.0
20/07:30pm 20.4 22.2 19.6 95 0.5 SW 9 11 5 6 1015.5 - 0.0
20/07:00pm 20.8 22.7 19.7 93 0.7 SW 9 13 5 7 1015.4 - 0.0
20/06:30pm 21.0 22.6 19.9 93 0.7 WSW 11 13 6 7 1015.3 - 0.0
20/06:00pm 21.2 22.4 19.8 92 0.9 SW 13 15 7 8 1015.0 1014.9 0.0
20/05:30pm 21.9 23.5 19.9 88 1.3 SW 11 13 6 7 1014.8 - 0.0
20/05:00pm 21.4 22.6 20.0 92 0.9 SSW 13 15 7 8 1014.6 - 0.0
20/04:30pm 20.6 21.4 19.8 95 0.5 SSW 15 19 8 10 1014.7 - 0.0
20/04:00pm 21.1 21.0 19.5 90 1.0 SSW 19 24 10 13 1014.6 - 0.0
20/03:30pm 21.2 20.5 19.5 90 1.1 SSW 22 26 12 14 1014.6 - 0.0
20/03:00pm 22.0 21.3 19.6 86 1.5 SSW 22 24 12 13 1014.7 1014.7 0.0
20/02:30pm 21.9 21.2 19.5 86 1.5 SSW 22 26 12 14 1014.7 - 0.0
20/02:00pm 21.8 21.1 19.6 87 1.4 SSW 22 26 12 14 1014.9 - 0.0

Other formats

Comma delimited format used in spreadsheet applications
http://www.bom.gov.au/fwo/IDV60801/IDV60801.94933.axf

JavaScript Object Notation format (JSON) in row-major order
http://www.bom.gov.au/fwo/IDV60801/IDV60801.94933.json

Data quality

Most of these data are generated automatically and are frequently updated. Quality checks on data are not normally performed. It is possible for incorrect values to appear. Refer to information at About Latest Weather Observations and please check the disclaimer before using these data.